Time;durP1;ratioP1;P1;durP2;ratioP2;P2;SDS_P1;SDS_P2;PMS_P1;PMS_P2;Temp;Humidity;BMP_temperature;BMP_pressure;BME280_temperature;BME280_humidity;BME280_pressure;Samples;Min_cycle;Max_cycle;Signal;HPM_P1;HPM_P2
2023/10/23 00:03:06;;;;;;;9.18;5.13;;;;;;;22.25;61.72;100291.53;39959783;29;20408;-71
2023/10/23 00:23:08;;;;;;;9.27;4.80;;;;;;;22.05;61.93;100272.94;39965325;29;20110;-72
2023/10/23 00:43:13;;;;;;;10.32;5.15;;;;;;;22.19;62.16;100292.88;39957518;29;20520;-69
2023/10/23 01:03:13;;;;;;;6.25;4.47;;;;;;;22.16;62.18;100296.63;39971038;29;20046;-70
2023/10/23 01:23:14;;;;;;;14.45;4.55;;;;;;;22.11;62.20;100288.25;39954381;29;20050;-67
2023/10/23 01:43:14;;;;;;;10.32;4.20;;;;;;;22.13;62.00;100310.06;39956670;29;20045;-68
2023/10/23 02:03:15;;;;;;;5.55;4.10;;;;;;;21.99;62.05;100286.63;39947733;29;20050;-69
2023/10/23 02:23:15;;;;;;;7.75;4.20;;;;;;;22.01;62.03;100298.72;39952025;29;20046;-69
2023/10/23 02:43:16;;;;;;;5.55;3.70;;;;;;;22.00;62.18;100309.41;39952699;29;20626;-70
2023/10/23 03:03:17;;;;;;;6.60;4.15;;;;;;;21.84;61.98;100294.84;39951946;29;20038;-69
2023/10/23 03:23:17;;;;;;;6.00;3.80;;;;;;;21.91;61.89;100316.28;39959372;29;20110;-69
2023/10/23 03:43:18;;;;;;;6.10;4.03;;;;;;;21.93;62.16;100332.78;39977814;29;20097;-67
2023/10/23 04:03:18;;;;;;;4.97;3.75;;;;;;;21.87;61.96;100328.88;39966065;29;20149;-70
2023/10/23 04:23:19;;;;;;;6.13;4.10;;;;;;;21.71;62.09;100339.78;39964064;29;20402;-71
2023/10/23 04:43:22;;;;;;;4.43;3.45;;;;;;;21.78;62.10;100358.59;39974278;29;20058;-70
2023/10/23 05:03:22;;;;;;;4.13;3.38;;;;;;;21.74;61.99;100360.63;39966417;29;20069;-70
2023/10/23 05:23:23;;;;;;;3.90;3.30;;;;;;;21.76;62.05;100381.59;39943672;29;20504;-69
2023/10/23 05:43:24;;;;;;;5.20;3.70;;;;;;;21.74;61.80;100402.81;39938821;29;20508;-71
2023/10/23 06:03:25;;;;;;;4.43;3.28;;;;;;;21.84;61.71;100417.91;39946320;29;20129;-71
2023/10/23 06:23:25;;;;;;;4.30;3.60;;;;;;;21.84;61.83;100452.16;39964366;29;20069;-74
2023/10/23 06:43:26;;;;;;;4.28;3.20;;;;;;;21.77;61.79;100437.78;39952073;29;20046;-70
2023/10/23 07:03:26;;;;;;;7.38;4.10;;;;;;;22.05;61.22;100441.69;39954512;29;20408;-70
2023/10/23 07:23:29;;;;;;;8.02;4.50;;;;;;;22.23;61.68;100437.56;39997032;29;20150;-69
2023/10/23 07:43:29;;;;;;;17.98;6.15;;;;;;;22.17;60.54;100458.34;39952066;29;20098;-70
2023/10/23 08:03:30;;;;;;;15.93;5.45;;;;;;;21.54;56.99;100453.56;39949725;29;20087;-69
2023/10/23 08:23:30;;;;;;;6.38;4.43;;;;;;;20.65;51.39;100461.97;39973380;29;20104;-78
2023/10/23 08:43:31;;;;;;;9.27;5.20;;;;;;;21.58;52.40;100457.66;39993534;29;20035;-77
2023/10/23 09:03:32;;;;;;;11.85;5.10;;;;;;;22.03;52.41;100433.91;39968464;29;20042;-74
2023/10/23 09:23:33;;;;;;;6.93;4.68;;;;;;;21.93;52.11;100450.59;39943728;29;20050;-70
2023/10/23 09:43:34;;;;;;;7.03;4.53;;;;;;;22.48;52.29;100437.41;39928684;29;20053;-70
2023/10/23 10:03:39;;;;;;;4.25;2.53;;;;;;;22.24;49.29;100430.50;39946048;29;20054;-74
2023/10/23 10:23:40;;;;;;;10.23;3.40;;;;;;;22.66;55.09;100409.47;39927341;29;20051;-73
2023/10/23 10:43:41;;;;;;;4.65;2.25;;;;;;;22.61;49.41;100373.91;39922078;29;20091;-76
2023/10/23 11:03:42;;;;;;;5.57;2.22;;;;;;;22.80;45.30;100391.66;39921935;29;20046;-72
2023/10/23 11:23:46;;;;;;;2.10;1.40;;;;;;;22.83;42.85;100365.81;39949152;29;20055;-73
2023/10/23 11:44:14;;;;;;;4.53;1.73;;;;;;;22.87;46.39;100350.56;39945628;29;20054;-74
2023/10/23 12:04:14;;;;;;;6.32;2.00;;;;;;;22.62;47.20;100289.31;39941476;29;20049;-74
2023/10/23 12:24:15;;;;;;;3.55;1.40;;;;;;;23.47;48.65;100283.78;39962425;29;20057;-76
2023/10/23 12:44:16;;;;;;;3.97;2.08;;;;;;;23.58;49.40;100278.41;39980783;29;20061;-74
2023/10/23 13:04:21;;;;;;;4.32;1.60;;;;;;;23.59;43.81;100280.06;39971050;29;20077;-76
2023/10/23 13:24:21;;;;;;;2.60;1.20;;;;;;;23.83;41.35;100270.91;39975229;29;20111;-78
2023/10/23 13:44:22;;;;;;;3.97;1.40;;;;;;;23.82;44.30;100254.19;39936069;29;20103;-86
2023/10/23 14:04:22;;;;;;;45.08;14.35;;;;;;;23.52;44.48;100249.03;39960177;29;20116;-73
2023/10/23 14:24:26;;;;;;;7.57;3.47;;;;;;;23.39;45.88;100247.50;39977006;29;20058;-75
2023/10/23 14:44:26;;;;;;;6.30;3.00;;;;;;;22.96;47.93;100182.59;39976063;29;20058;-72
2023/10/23 15:04:26;;;;;;;4.30;2.20;;;;;;;23.12;48.15;100237.50;39969406;29;20125;-73
2023/10/23 15:24:28;;;;;;;6.47;2.97;;;;;;;23.22;49.00;100230.50;39990189;29;20057;-75
2023/10/23 15:44:32;;;;;;;11.18;5.72;;;;;;;23.14;50.81;100201.25;39988022;29;20382;-74
2023/10/23 16:04:33;;;;;;;7.22;4.38;;;;;;;23.11;51.79;100199.72;40003417;29;20073;-76
2023/10/23 16:24:33;;;;;;;6.90;3.85;;;;;;;23.07;52.51;100232.66;39948366;29;20054;-70
2023/10/23 16:44:34;;;;;;;13.10;6.45;;;;;;;23.02;52.67;100237.50;39963843;29;20046;-76
2023/10/23 17:04:35;;;;;;;10.73;5.72;;;;;;;23.05;52.77;100225.84;39940769;29;20085;-70
2023/10/23 17:24:36;;;;;;;13.75;5.68;;;;;;;22.96;53.53;100198.44;39931669;29;20046;-73
2023/10/23 17:44:36;;;;;;;14.43;5.53;;;;;;;22.82;55.28;100218.13;39939492;29;20058;-72
2023/10/23 18:04:37;;;;;;;11.10;5.03;;;;;;;22.68;55.42;100192.94;39944040;29;20450;-70
2023/10/23 18:24:41;;;;;;;10.95;4.65;;;;;;;22.72;56.03;100223.38;39931041;29;20058;-72
2023/10/23 18:44:43;;;;;;;11.15;4.47;;;;;;;22.57;56.34;100220.25;39958785;29;20050;-73
2023/10/23 19:04:44;;;;;;;10.38;4.78;;;;;;;22.65;56.50;100212.50;39958030;29;20049;-73
2023/10/23 19:24:45;;;;;;;9.88;4.70;;;;;;;22.67;56.71;100197.38;39979812;29;20061;-73
2023/10/23 19:44:46;;;;;;;7.70;4.63;;;;;;;22.57;57.11;100188.59;39971507;29;20069;-73
2023/10/23 20:04:49;;;;;;;8.48;4.20;;;;;;;22.59;57.69;100172.63;39977703;29;20128;-76
2023/10/23 20:24:51;;;;;;;7.20;4.20;;;;;;;22.50;58.36;100168.97;39967013;29;20057;-76
2023/10/23 20:44:52;;;;;;;7.05;4.65;;;;;;;22.49;58.07;100168.13;39965466;29;20042;-76
2023/10/23 21:04:58;;;;;;;5.85;4.13;;;;;;;22.29;58.01;100142.59;39968366;29;20047;-76
2023/10/23 21:24:58;;;;;;;7.50;4.15;;;;;;;22.31;58.42;100116.94;39963122;29;20046;-76
2023/10/23 21:44:59;;;;;;;6.90;4.60;;;;;;;22.42;58.69;100124.78;39953071;29;20074;-74
2023/10/23 22:04:59;;;;;;;6.32;4.32;;;;;;;22.29;58.52;100093.34;39959952;29;20057;-78
2023/10/23 22:25:00;;;;;;;4.90;4.20;;;;;;;22.28;59.05;100077.66;39961932;29;20149;-78
2023/10/23 22:45:00;;;;;;;5.88;4.38;;;;;;;22.35;58.18;100084.88;39963145;29;20054;-77
2023/10/23 23:05:01;;;;;;;6.10;5.00;;;;;;;22.19;58.40;100043.19;39961507;29;20053;-75
2023/10/23 23:25:02;;;;;;;5.68;4.20;;;;;;;21.83;57.76;99981.31;39937503;29;20409;-76
2023/10/23 23:45:03;;;;;;;6.03;4.60;;;;;;;22.31;58.21;100035.16;39979618;29;20046;-76
